Terminal Aerodrome Forecast
Issued by NWS Upton, NY

Home | Current Version | Previous Version | Text Only | Print | Product List | Glossary On
Versions: 1 2 3 4 5 6 7 8 9 10 11 12 13 14 15 16 17 18 19 20 21 22 23 24 25 26 27 28 29 30 31
000
FTUS41 KOKX 050200 AAA
TAFLGA
TAF AMD
KLGA 050228Z 0502/0524 25008KT 3SM -RA BR SCT008 OVC025
      TEMPO 0502/0505 1SM -RA BR
     FM050500 34008KT 1SM -RASNPL BR OVC008
     FM050700 35008KT 1/2SM SN FZFG OVC005
     FM051200 35012G18KT 1SM -SN BR OVC008
     FM051600 35012G18KT 2SM -SN BR SCT008 OVC015
     FM052200 33012KT P6SM BKN020 OVC050 PROB30 0522/0524 2SM -SN
      BKN008 OVC015=

USA.gov is the U.S. government's official web portal to all federal, state and local government web resources and services.